Time;durP1;ratioP1;P1;durP2;ratioP2;P2;SDS_P1;SDS_P2;PMS_P1;PMS_P2;Temp;Humidity;BMP_temperature;BMP_pressure;BME280_temperature;BME280_humidity;BME280_pressure;Samples;Min_cycle;Max_cycle;Signal;HPM_P1;HPM_P2
2021/04/15 00:01:15;;;;;;;6.03;2.40;;;;;;;;;;5073170;28;20729;-67
2021/04/15 00:04:00;;;;;;;4.20;2.37;;;;;;;;;;5073200;28;20245;-68
2021/04/15 00:06:45;;;;;;;3.93;2.63;;;;;;;;;;5072895;28;20197;-68
2021/04/15 00:09:29;;;;;;;4.47;2.57;;;;;;;;;;5073172;28;20213;-68
2021/04/15 00:12:14;;;;;;;3.70;2.47;;;;;;;;;;5073062;28;20381;-67
2021/04/15 00:14:58;;;;;;;7.07;2.63;;;;;;;;;;5073083;28;20703;-67
2021/04/15 00:17:43;;;;;;;6.47;2.83;;;;;;;;;;5072614;28;20200;-68
2021/04/15 00:20:27;;;;;;;4.80;2.43;;;;;;;;;;5072935;28;20258;-67
2021/04/15 00:23:13;;;;;;;5.60;3.00;;;;;;;;;;5072056;28;20421;-67
2021/04/15 00:25:57;;;;;;;4.60;2.50;;;;;;;;;;5072496;28;20197;-67
2021/04/15 00:28:42;;;;;;;6.47;2.53;;;;;;;;;;5073230;28;20679;-68
2021/04/15 00:31:28;;;;;;;4.10;2.37;;;;;;;;;;5072367;28;20209;-68
2021/04/15 00:34:12;;;;;;;2.97;2.20;;;;;;;;;;5072614;28;20229;-68
2021/04/15 00:36:56;;;;;;;5.93;2.43;;;;;;;;;;5072264;28;20199;-68
2021/04/15 00:39:42;;;;;;;3.97;2.30;;;;;;;;;;5072759;28;20196;-68
2021/04/15 00:42:26;;;;;;;3.60;2.50;;;;;;;;;;5072776;28;20204;-68
2021/04/15 00:45:12;;;;;;;3.03;2.37;;;;;;;;;;5072554;28;20220;-68
2021/04/15 00:48:00;;;;;;;2.63;2.10;;;;;;;;;;5072348;28;20423;-68
2021/04/15 00:50:47;;;;;;;3.00;2.07;;;;;;;;;;5072556;28;20209;-68
2021/04/15 00:53:34;;;;;;;3.97;2.33;;;;;;;;;;5072190;28;20287;-68
2021/04/15 00:56:20;;;;;;;5.77;2.50;;;;;;;;;;5071812;28;20200;-68
2021/04/15 00:59:06;;;;;;;4.57;2.50;;;;;;;;;;5072202;28;20257;-68
2021/04/15 01:01:50;;;;;;;3.23;2.10;;;;;;;;;;5072216;28;20193;-68
2021/04/15 01:04:35;;;;;;;3.30;2.10;;;;;;;;;;5072109;28;20220;-68
2021/04/15 01:07:19;;;;;;;3.60;1.70;;;;;;;;;;5071569;28;20208;-68
2021/04/15 01:10:05;;;;;;;3.93;1.70;;;;;;;;;;5071915;28;20226;-68
2021/04/15 01:13:09;;;;;;;3.20;1.70;;;;;;;;;;5071593;28;20483;-68
2021/04/15 01:15:59;;;;;;;2.73;1.70;;;;;;;;;;5071510;28;20270;-68
2021/04/15 01:18:46;;;;;;;2.13;1.50;;;;;;;;;;5071484;28;20208;-68
2021/04/15 01:21:55;;;;;;;3.83;1.73;;;;;;;;;;5071857;28;20247;-68
2021/04/15 01:24:41;;;;;;;2.47;1.50;;;;;;;;;;5066412;28;20290;-68
2021/04/15 01:27:38;;;;;;;3.43;1.60;;;;;;;;;;5071459;28;20590;-68
2021/04/15 01:30:25;;;;;;;1.77;1.53;;;;;;;;;;5071916;28;20196;-68
2021/04/15 01:33:13;;;;;;;1.53;1.20;;;;;;;;;;5071225;28;20595;-68
2021/04/15 01:36:00;;;;;;;1.40;1.30;;;;;;;;;;5071277;28;20199;-68
2021/04/15 01:38:48;;;;;;;1.53;1.40;;;;;;;;;;5071643;28;20247;-68
2021/04/15 01:41:35;;;;;;;3.97;1.60;;;;;;;;;;5071614;28;20204;-68
2021/04/15 01:44:22;;;;;;;1.50;1.40;;;;;;;;;;5070742;28;20263;-68
2021/04/15 01:47:09;;;;;;;2.90;1.50;;;;;;;;;;5071136;28;20208;-68
2021/04/15 01:49:57;;;;;;;3.13;1.83;;;;;;;;;;5070720;28;20442;-68
2021/04/15 01:52:42;;;;;;;2.70;1.77;;;;;;;;;;5071148;28;20224;-68
2021/04/15 01:55:28;;;;;;;3.47;1.50;;;;;;;;;;5071272;28;20271;-68
2021/04/15 01:58:15;;;;;;;1.70;1.50;;;;;;;;;;5070751;28;20248;-68
2021/04/15 02:01:01;;;;;;;2.17;1.70;;;;;;;;;;5071269;28;20238;-68
2021/04/15 02:03:48;;;;;;;2.60;1.83;;;;;;;;;;5070084;28;20549;-68
2021/04/15 02:06:35;;;;;;;4.37;1.87;;;;;;;;;;5070673;28;20200;-68
2021/04/15 02:09:21;;;;;;;2.40;1.53;;;;;;;;;;5070919;28;20271;-68
2021/04/15 02:12:08;;;;;;;2.17;1.60;;;;;;;;;;5071086;28;20619;-68
2021/04/15 02:14:55;;;;;;;3.57;2.20;;;;;;;;;;5070965;28;20216;-68
2021/04/15 02:17:40;;;;;;;4.03;2.30;;;;;;;;;;5070417;28;20224;-68
2021/04/15 02:20:27;;;;;;;2.37;2.07;;;;;;;;;;5071120;28;20224;-68
2021/04/15 02:23:15;;;;;;;3.83;2.00;;;;;;;;;;5070447;28;20221;-68
2021/04/15 02:26:01;;;;;;;4.23;2.10;;;;;;;;;;5070339;28;20205;-68
2021/04/15 02:28:48;;;;;;;3.83;2.10;;;;;;;;;;5070762;28;20346;-68
2021/04/15 02:31:35;;;;;;;3.53;1.93;;;;;;;;;;5070839;28;20555;-68
2021/04/15 02:34:21;;;;;;;2.70;2.07;;;;;;;;;;5070858;28;20220;-68
2021/04/15 02:37:08;;;;;;;3.00;2.22;;;;;;;;;;5069835;28;20485;-68
2021/04/15 02:39:58;;;;;;;3.13;2.10;;;;;;;;;;5070736;28;20196;-68
2021/04/15 02:42:44;;;;;;;4.67;2.40;;;;;;;;;;5070778;28;20683;-68
2021/04/15 02:45:32;;;;;;;3.70;2.57;;;;;;;;;;5071065;28;20199;-68
2021/04/15 02:48:19;;;;;;;3.83;2.70;;;;;;;;;;5070565;28;20267;-68
2021/04/15 02:51:06;;;;;;;4.63;3.80;;;;;;;;;;5069894;28;20431;-68
2021/04/15 02:53:53;;;;;;;4.23;3.20;;;;;;;;;;5070388;28;20477;-68
2021/04/15 02:56:41;;;;;;;5.70;3.90;;;;;;;;;;5074444;28;20204;-68
2021/04/15 02:59:28;;;;;;;5.53;3.77;;;;;;;;;;5074480;28;20811;-68
2021/04/15 03:02:14;;;;;;;4.30;3.53;;;;;;;;;;5074475;28;20590;-68
2021/04/15 03:05:01;;;;;;;5.37;4.07;;;;;;;;;;5074457;28;20652;-68
2021/04/15 03:07:46;;;;;;;5.03;3.73;;;;;;;;;;5073840;28;20305;-68
2021/04/15 03:10:33;;;;;;;6.03;4.33;;;;;;;;;;5074352;28;20221;-68
2021/04/15 03:13:20;;;;;;;4.57;4.10;;;;;;;;;;5073995;28;20268;-68
2021/04/15 03:16:05;;;;;;;6.30;4.20;;;;;;;;;;5073771;28;20199;-68
2021/04/15 03:18:53;;;;;;;5.73;4.13;;;;;;;;;;5074204;28;20201;-68
2021/04/15 03:21:40;;;;;;;4.40;3.60;;;;;;;;;;5074421;28;20243;-68
2021/04/15 03:24:29;;;;;;;5.50;3.60;;;;;;;;;;5074185;28;20240;-68
2021/04/15 03:27:17;;;;;;;5.90;4.70;;;;;;;;;;5072822;28;20414;-68
2021/04/15 03:30:07;;;;;;;5.73;3.83;;;;;;;;;;5073989;28;20193;-68
2021/04/15 03:32:55;;;;;;;4.83;3.83;;;;;;;;;;5073784;28;20222;-68
2021/04/15 03:35:42;;;;;;;4.50;3.70;;;;;;;;;;5073595;28;20201;-68
2021/04/15 03:38:28;;;;;;;4.23;3.63;;;;;;;;;;5073971;28;20202;-68
2021/04/15 03:41:14;;;;;;;5.78;5.00;;;;;;;;;;5072586;28;20423;-68
2021/04/15 03:44:02;;;;;;;5.27;4.23;;;;;;;;;;5073786;28;20244;-68
2021/04/15 03:46:50;;;;;;;7.43;4.57;;;;;;;;;;5073321;28;20244;-68
2021/04/15 03:49:36;;;;;;;10.80;9.70;;;;;;;;;;5073621;28;20723;-68
2021/04/15 03:52:22;;;;;;;9.03;5.43;;;;;;;;;;5073706;28;20220;-68
2021/04/15 03:55:11;;;;;;;8.33;4.77;;;;;;;;;;5073606;28;20220;-68
2021/04/15 03:57:58;;;;;;;8.23;4.77;;;;;;;;;;5072787;28;20236;-68
2021/04/15 04:00:47;;;;;;;7.20;4.67;;;;;;;;;;5073430;28;20200;-68
2021/04/15 04:03:32;;;;;;;5.70;4.70;;;;;;;;;;5073434;28;20250;-67
2021/04/15 04:06:18;;;;;;;5.37;4.80;;;;;;;;;;5071633;28;20643;-68
2021/04/15 04:09:04;;;;;;;5.80;4.10;;;;;;;;;;5073308;28;20205;-67
2021/04/15 04:11:50;;;;;;;7.20;4.70;;;;;;;;;;5073262;28;20672;-68
2021/04/15 04:14:37;;;;;;;7.63;5.13;;;;;;;;;;5073131;28;20232;-68
2021/04/15 04:17:27;;;;;;;7.83;5.13;;;;;;;;;;5072840;28;20215;-68
2021/04/15 04:20:12;;;;;;;6.97;5.43;;;;;;;;;;5073328;28;20197;-68
2021/04/15 04:22:59;;;;;;;7.43;5.17;;;;;;;;;;5072577;28;20192;-68
2021/04/15 04:25:47;;;;;;;5.37;4.87;;;;;;;;;;5073221;28;20251;-67
2021/04/15 04:28:36;;;;;;;5.07;4.60;;;;;;;;;;5072979;28;20197;-67
2021/04/15 04:31:22;;;;;;;7.10;5.95;;;;;;;;;;5071529;28;20464;-68
2021/04/15 04:34:08;;;;;;;9.00;5.63;;;;;;;;;;5072515;28;20236;-67
2021/04/15 04:36:53;;;;;;;5.83;4.97;;;;;;;;;;5072227;28;20207;-67
2021/04/15 04:39:39;;;;;;;7.57;4.97;;;;;;;;;;5072690;28;20243;-68
2021/04/15 04:42:25;;;;;;;7.37;5.37;;;;;;;;;;5072804;28;20600;-67
2021/04/15 04:45:10;;;;;;;6.10;5.33;;;;;;;;;;5072761;28;20239;-68
2021/04/15 04:47:58;;;;;;;9.90;5.27;;;;;;;;;;5071971;28;20679;-67
2021/04/15 04:50:47;;;;;;;6.60;5.90;;;;;;;;;;5072490;28;20200;-67
2021/04/15 04:53:33;;;;;;;8.30;5.37;;;;;;;;;;5071978;28;20734;-67
2021/04/15 04:56:23;;;;;;;7.77;5.60;;;;;;;;;;5071636;28;20225;-67
2021/04/15 04:59:12;;;;;;;6.33;5.73;;;;;;;;;;5072297;28;20242;-67
2021/04/15 05:01:57;;;;;;;8.47;6.70;;;;;;;;;;5072224;28;20217;-67
2021/04/15 05:04:43;;;;;;;10.37;7.07;;;;;;;;;;5072060;28;20292;-67
2021/04/15 05:07:29;;;;;;;8.97;6.63;;;;;;;;;;5071605;28;20316;-68
2021/04/15 05:10:15;;;;;;;7.53;6.47;;;;;;;;;;5084147;22;20298;-66
2021/04/15 05:13:08;;;;;;;10.10;6.53;;;;;;;;;;5071879;28;20232;-69
2021/04/15 05:15:53;;;;;;;7.93;7.13;;;;;;;;;;5072110;28;20334;-69
2021/04/15 05:18:38;;;;;;;10.45;8.18;;;;;;;;;;5071265;28;20439;-68
2021/04/15 05:21:24;;;;;;;6.60;6.00;;;;;;;;;;5071924;28;20683;-68
2021/04/15 05:24:13;;;;;;;8.97;6.50;;;;;;;;;;5071739;28;20680;-68
2021/04/15 05:26:57;;;;;;;6.27;5.67;;;;;;;;;;5071351;28;20259;-68
2021/04/15 05:29:43;;;;;;;7.57;5.80;;;;;;;;;;5071682;28;20203;-68
2021/04/15 05:32:27;;;;;;;8.43;5.60;;;;;;;;;;5071510;28;20562;-68
2021/04/15 05:35:15;;;;;;;6.33;4.80;;;;;;;;;;5071658;28;20209;-68
2021/04/15 05:37:59;;;;;;;6.30;3.93;;;;;;;;;;5070786;28;20243;-69
2021/04/15 05:40:47;;;;;;;7.90;4.40;;;;;;;;;;5071412;28;20232;-66
2021/04/15 05:43:34;;;;;;;5.33;3.80;;;;;;;;;;5071361;28;20233;-67
2021/04/15 05:46:21;;;;;;;5.03;4.40;;;;;;;;;;5070622;28;20259;-68
2021/04/15 05:49:06;;;;;;;5.23;3.97;;;;;;;;;;5071161;28;20274;-68
2021/04/15 05:51:53;;;;;;;5.23;4.00;;;;;;;;;;5071211;28;20719;-68
2021/04/15 05:54:38;;;;;;;5.80;4.33;;;;;;;;;;5070991;28;20283;-69
2021/04/15 05:57:26;;;;;;;6.70;4.43;;;;;;;;;;5070919;28;20201;-68
2021/04/15 06:00:13;;;;;;;6.80;4.33;;;;;;;;;;5071232;28;20243;-68
2021/04/15 06:03:00;;;;;;;6.73;4.37;;;;;;;;;;5070917;28;20220;-67
2021/04/15 06:05:52;;;;;;;4.80;4.10;;;;;;;;;;5071114;28;20193;-67
2021/04/15 06:08:37;;;;;;;6.23;3.83;;;;;;;;;;5071035;28;20232;-67
2021/04/15 06:11:29;;;;;;;7.97;4.73;;;;;;;;;;5071198;28;20256;-67
2021/04/15 06:14:19;;;;;;;6.20;4.53;;;;;;;;;;5071025;28;20279;-67
2021/04/15 06:17:18;;;;;;;6.33;4.60;;;;;;;;;;5070473;28;20299;-67
2021/04/15 06:20:06;;;;;;;7.97;5.20;;;;;;;;;;5070688;28;20289;-67
2021/04/15 06:22:52;;;;;;;5.77;5.13;;;;;;;;;;5070496;28;20392;-67
2021/04/15 06:25:39;;;;;;;8.10;5.53;;;;;;;;;;5070942;28;20212;-67
2021/04/15 06:28:25;;;;;;;11.53;6.00;;;;;;;;;;5070885;28;20247;-66
2021/04/15 06:31:14;;;;;;;7.13;5.60;;;;;;;;;;5070256;28;20223;-68
2021/04/15 06:34:00;;;;;;;7.03;5.43;;;;;;;;;;5070564;28;20299;-67
2021/04/15 06:36:47;;;;;;;6.40;5.00;;;;;;;;;;5070291;28;20235;-68
2021/04/15 06:39:33;;;;;;;8.40;5.43;;;;;;;;;;5070725;28;20691;-67
2021/04/15 06:42:36;;;;;;;4.77;4.17;;;;;;;;;;5070728;28;20252;-67
2021/04/15 06:45:27;;;;;;;5.20;4.70;;;;;;;;;;5070629;28;20204;-67
2021/04/15 06:48:25;;;;;;;6.80;4.50;;;;;;;;;;5070026;28;20244;-67
2021/04/15 06:51:15;;;;;;;5.20;4.20;;;;;;;;;;5070582;28;20611;-67
2021/04/15 06:54:11;;;;;;;6.03;4.40;;;;;;;;;;5070402;28;20234;-67
2021/04/15 06:57:11;;;;;;;4.30;3.90;;;;;;;;;;5070156;28;20206;-68
2021/04/15 07:00:03;;;;;;;5.55;4.40;;;;;;;;;;5069904;28;20411;-67
2021/04/15 07:03:07;;;;;;;10.47;7.17;;;;;;;;;;5070553;28;20269;-68
2021/04/15 07:05:54;;;;;;;19.40;11.10;;;;;;;;;;5070330;28;20239;-67
2021/04/15 07:08:56;;;;;;;22.00;12.37;;;;;;;;;;5070649;28;20220;-68
2021/04/15 07:11:47;;;;;;;5.47;3.73;;;;;;;;;;5070182;28;20204;-68
2021/04/15 07:14:43;;;;;;;4.97;3.33;;;;;;;;;;5070271;28;20240;-67
2021/04/15 07:17:45;;;;;;;5.57;3.40;;;;;;;;;;5070177;28;20243;-67
2021/04/15 07:20:36;;;;;;;5.67;2.80;;;;;;;;;;5069863;28;20281;-68
2021/04/15 07:23:40;;;;;;;3.63;2.33;;;;;;;;;;5069303;28;20247;-68
2021/04/15 07:26:36;;;;;;;4.87;2.20;;;;;;;;;;5049763;28;20201;-68
2021/04/15 07:29:34;;;;;;;4.47;2.57;;;;;;;;;;5065462;28;20298;-68
2021/04/15 07:32:36;;;;;;;4.13;2.60;;;;;;;;;;5070170;28;20229;-67
2021/04/15 07:35:32;;;;;;;5.97;2.80;;;;;;;;;;5069469;28;20407;-68
2021/04/15 07:38:25;;;;;;;2.70;2.50;;;;;;;;;;5070066;28;20596;-67
2021/04/15 07:41:33;;;;;;;3.73;2.23;;;;;;;;;;5069968;28;20326;-68
2021/04/15 07:44:22;;;;;;;2.63;2.20;;;;;;;;;;5073490;28;20701;-68
2021/04/15 07:47:22;;;;;;;3.53;2.50;;;;;;;;;;5073151;28;20556;-68
2021/04/15 07:50:21;;;;;;;5.00;2.72;;;;;;;;;;5072479;28;20603;-68
2021/04/15 07:53:24;;;;;;;4.80;2.80;;;;;;;;;;5073473;28;20640;-67
2021/04/15 07:56:33;;;;;;;4.30;3.33;;;;;;;;;;5073151;28;20208;-68
2021/04/15 07:59:30;;;;;;;3.20;2.83;;;;;;;;;;5008813;28;20568;-68
2021/04/15 08:02:33;;;;;;;3.50;2.60;;;;;;;;;;5073451;28;20221;-67
2021/04/15 08:05:26;;;;;;;4.90;3.53;;;;;;;;;;5073753;28;20258;-68
2021/04/15 08:08:23;;;;;;;3.90;3.27;;;;;;;;;;5072840;28;20604;-68
2021/04/15 08:11:15;;;;;;;5.97;3.13;;;;;;;;;;5073350;28;20847;-67
2021/04/15 08:14:16;;;;;;;5.03;3.00;;;;;;;;;;5073146;28;20227;-68
2021/04/15 08:17:09;;;;;;;5.03;2.70;;;;;;;;;;5072831;28;20199;-67
2021/04/15 08:20:04;;;;;;;5.57;1.90;;;;;;;;;;5073278;28;20220;-67
2021/04/15 08:23:13;;;;;;;1.80;1.70;;;;;;;;;;5073209;28;20266;-68
2021/04/15 08:26:07;;;;;;;4.23;2.10;;;;;;;;;;5008138;28;20212;-67
2021/04/15 08:29:09;;;;;;;3.57;1.90;;;;;;;;;;5072991;28;20259;-67
2021/04/15 08:31:59;;;;;;;2.77;2.10;;;;;;;;;;5072529;28;20253;-67
2021/04/15 08:34:49;;;;;;;4.70;2.07;;;;;;;;;;5072530;28;20244;-67
2021/04/15 08:37:39;;;;;;;4.65;2.40;;;;;;;;;;5071606;28;20783;-67
2021/04/15 08:40:32;;;;;;;2.47;2.13;;;;;;;;;;5072680;28;20642;-67
2021/04/15 08:43:44;;;;;;;2.93;2.17;;;;;;;;;;5072734;28;20306;-67
2021/04/15 08:46:30;;;;;;;2.57;2.20;;;;;;;;;;5034677;28;20250;-68
2021/04/15 08:49:21;;;;;;;2.50;2.10;;;;;;;;;;5072454;28;20203;-67
2021/04/15 08:52:15;;;;;;;2.87;2.20;;;;;;;;;;5072117;28;20216;-68
2021/04/15 08:55:06;;;;;;;3.53;2.23;;;;;;;;;;5072638;28;20309;-68
2021/04/15 08:57:55;;;;;;;3.97;2.50;;;;;;;;;;5071850;28;20284;-68
2021/04/15 09:00:42;;;;;;;3.93;2.50;;;;;;;;;;5072388;28;20234;-68
2021/04/15 09:03:31;;;;;;;3.70;2.20;;;;;;;;;;5071992;28;20219;-68
2021/04/15 09:06:22;;;;;;;6.10;2.70;;;;;;;;;;5071585;28;20203;-67
2021/04/15 09:09:18;;;;;;;2.57;1.73;;;;;;;;;;5072193;28;20619;-67
2021/04/15 09:12:27;;;;;;;3.80;2.30;;;;;;;;;;5072063;28;20704;-67
2021/04/15 09:15:16;;;;;;;2.33;1.80;;;;;;;;;;5072139;28;20211;-67
2021/04/15 09:18:05;;;;;;;3.30;1.90;;;;;;;;;;5071793;28;20306;-67
2021/04/15 09:20:56;;;;;;;4.00;1.80;;;;;;;;;;5072022;28;20224;-67
2021/04/15 09:23:46;;;;;;;5.90;1.80;;;;;;;;;;5071997;28;20236;-67
2021/04/15 09:26:46;;;;;;;2.55;1.90;;;;;;;;;;5070796;28;20473;-68
2021/04/15 09:29:36;;;;;;;3.37;1.60;;;;;;;;;;5071630;28;20200;-68
2021/04/15 09:32:21;;;;;;;5.03;2.03;;;;;;;;;;5071561;28;20213;-68
2021/04/15 09:35:11;;;;;;;2.20;1.87;;;;;;;;;;5071624;28;20226;-68
2021/04/15 09:38:23;;;;;;;4.07;2.00;;;;;;;;;;5071091;28;20243;-68
2021/04/15 09:41:37;;;;;;;3.97;2.20;;;;;;;;;;5034685;28;20211;-68
2021/04/15 09:44:28;;;;;;;2.33;1.70;;;;;;;;;;5071173;28;20704;-68
2021/04/15 09:47:18;;;;;;;2.10;1.50;;;;;;;;;;5070880;28;20216;-68
2021/04/15 09:50:09;;;;;;;1.50;1.40;;;;;;;;;;5071250;28;20235;-67
2021/04/15 09:53:10;;;;;;;2.90;1.40;;;;;;;;;;5071176;28;20734;-68
2021/04/15 09:56:04;;;;;;;2.00;1.37;;;;;;;;;;5070773;28;20240;-68
2021/04/15 09:58:55;;;;;;;2.33;1.30;;;;;;;;;;5071090;28;20557;-68
2021/04/15 10:01:41;;;;;;;2.63;1.50;;;;;;;;;;5071220;28;20273;-68
2021/04/15 10:04:32;;;;;;;1.33;1.23;;;;;;;;;;5070240;28;20224;-68
2021/04/15 10:07:19;;;;;;;2.70;1.10;;;;;;;;;;5070705;28;20216;-66
2021/04/15 10:10:09;;;;;;;1.30;1.20;;;;;;;;;;5071076;28;20219;-67
2021/04/15 10:12:57;;;;;;;1.53;1.27;;;;;;;;;;5071000;28;20223;-69
2021/04/15 10:15:43;;;;;;;1.92;1.50;;;;;;;;;;5070487;28;20423;-67
2021/04/15 10:18:37;;;;;;;1.90;1.47;;;;;;;;;;5071249;28;20240;-67
2021/04/15 10:21:48;;;;;;;1.43;1.20;;;;;;;;;;5071321;28;20239;-69
2021/04/15 10:24:36;;;;;;;1.40;1.30;;;;;;;;;;5071038;28;20195;-68
2021/04/15 10:27:34;;;;;;;1.40;1.30;;;;;;;;;;5070200;28;20278;-68
2021/04/15 10:30:33;;;;;;;1.67;1.50;;;;;;;;;;5071137;28;20293;-68
2021/04/15 10:33:41;;;;;;;1.73;1.60;;;;;;;;;;5070612;28;20718;-68
2021/04/15 10:36:35;;;;;;;2.00;1.43;;;;;;;;;;5070415;28;20201;-68
2021/04/15 10:39:25;;;;;;;1.70;1.60;;;;;;;;;;5070704;28;20207;-68
2021/04/15 10:42:22;;;;;;;2.33;1.70;;;;;;;;;;5070708;28;20205;-68
2021/04/15 10:45:20;;;;;;;1.70;1.60;;;;;;;;;;5070783;28;20263;-68
2021/04/15 10:48:13;;;;;;;2.10;1.57;;;;;;;;;;5070548;28;20235;-68
2021/04/15 10:50:59;;;;;;;1.73;1.63;;;;;;;;;;5070679;28;20600;-68
2021/04/15 10:53:46;;;;;;;1.60;1.50;;;;;;;;;;5070428;28;20224;-68
2021/04/15 10:56:33;;;;;;;2.37;1.30;;;;;;;;;;5070224;28;20877;-68
2021/04/15 10:59:30;;;;;;;1.77;1.30;;;;;;;;;;5070649;28;20563;-68
2021/04/15 11:02:26;;;;;;;2.10;1.90;;;;;;;;;;5070443;28;20718;-67
2021/04/15 11:05:24;;;;;;;2.03;1.92;;;;;;;;;;5069550;28;21138;-68
2021/04/15 11:08:16;;;;;;;2.07;1.63;;;;;;;;;;5070164;28;20699;-67
2021/04/15 11:11:08;;;;;;;1.73;1.63;;;;;;;;;;5082367;22;20294;-67
2021/04/15 11:14:00;;;;;;;2.33;1.70;;;;;;;;;;5070441;28;20237;-67
2021/04/15 11:16:47;;;;;;;1.40;1.30;;;;;;;;;;5072415;28;20235;-67
2021/04/15 11:19:31;;;;;;;2.07;1.90;;;;;;;;;;5073688;28;20200;-68
2021/04/15 11:22:18;;;;;;;2.37;1.90;;;;;;;;;;5074248;28;20278;-67
2021/04/15 11:25:12;;;;;;;2.47;1.80;;;;;;;;;;5074254;28;20228;-67
2021/04/15 11:27:57;;;;;;;2.07;1.50;;;;;;;;;;5073607;28;20615;-68
2021/04/15 11:30:44;;;;;;;2.00;1.80;;;;;;;;;;5074213;28;20205;-69
2021/04/15 11:33:34;;;;;;;2.20;2.00;;;;;;;;;;5073838;28;20647;-67
2021/04/15 11:36:19;;;;;;;1.87;1.77;;;;;;;;;;5073486;28;20234;-67
2021/04/15 11:39:09;;;;;;;2.10;2.00;;;;;;;;;;5073952;28;20561;-67
2021/04/15 11:41:56;;;;;;;1.97;1.80;;;;;;;;;;5072527;28;20794;-67
2021/04/15 11:44:44;;;;;;;2.20;2.10;;;;;;;;;;5073741;28;20435;-68
2021/04/15 11:47:30;;;;;;;2.23;2.10;;;;;;;;;;5073175;28;20597;-67
2021/04/15 11:50:15;;;;;;;2.00;1.90;;;;;;;;;;5073721;28;20307;-67
2021/04/15 11:53:20;;;;;;;1.77;1.67;;;;;;;;;;5073436;28;20747;-68
2021/04/15 11:56:16;;;;;;;2.23;2.03;;;;;;;;;;5073120;28;20220;-67
2021/04/15 11:59:16;;;;;;;2.50;2.30;;;;;;;;;;5073541;28;20217;-67
2021/04/15 12:02:13;;;;;;;2.70;2.50;;;;;;;;;;5073407;28;20197;-67
2021/04/15 12:05:09;;;;;;;3.07;2.00;;;;;;;;;;5073493;28;20263;-67
2021/04/15 12:07:55;;;;;;;2.47;2.10;;;;;;;;;;5072898;28;20201;-68
2021/04/15 12:10:41;;;;;;;2.67;2.40;;;;;;;;;;5073374;28;20385;-67
2021/04/15 12:13:29;;;;;;;3.03;2.37;;;;;;;;;;5073121;28;20297;-67
2021/04/15 12:16:17;;;;;;;2.10;2.00;;;;;;;;;;5072841;28;20751;-67
2021/04/15 12:19:04;;;;;;;3.27;2.13;;;;;;;;;;5073514;28;20321;-67
2021/04/15 12:21:53;;;;;;;2.20;2.10;;;;;;;;;;5073151;28;20562;-67
2021/04/15 12:24:40;;;;;;;2.90;2.10;;;;;;;;;;5073286;28;20416;-68
2021/04/15 12:27:26;;;;;;;2.40;2.20;;;;;;;;;;5071444;28;20239;-67
2021/04/15 12:30:12;;;;;;;2.40;2.20;;;;;;;;;;5072241;28;20775;-67
2021/04/15 12:33:02;;;;;;;2.60;1.80;;;;;;;;;;5072744;28;20274;-67
2021/04/15 12:35:49;;;;;;;1.83;1.73;;;;;;;;;;5072838;28;20711;-67
2021/04/15 12:38:36;;;;;;;2.13;2.00;;;;;;;;;;5072807;28;20499;-67
2021/04/15 12:41:21;;;;;;;2.30;2.10;;;;;;;;;;5072744;28;20252;-67
2021/04/15 12:44:08;;;;;;;2.88;2.22;;;;;;;;;;5071526;28;20408;-67
2021/04/15 12:46:54;;;;;;;2.37;2.20;;;;;;;;;;5071942;28;20226;-67
2021/04/15 12:49:39;;;;;;;2.40;2.20;;;;;;;;;;5072933;28;20214;-68
2021/04/15 12:52:29;;;;;;;2.27;2.07;;;;;;;;;;5072373;28;20267;-67
2021/04/15 12:55:15;;;;;;;2.30;2.10;;;;;;;;;;5072206;28;20280;-67
2021/04/15 12:58:01;;;;;;;2.33;2.13;;;;;;;;;;5071936;28;20246;-67
2021/04/15 13:00:46;;;;;;;2.77;2.30;;;;;;;;;;5072654;28;20204;-67
2021/04/15 13:03:31;;;;;;;2.10;2.00;;;;;;;;;;5072498;28;20323;-67
2021/04/15 13:06:18;;;;;;;2.30;2.20;;;;;;;;;;5071944;28;20237;-68
2021/04/15 13:09:03;;;;;;;2.30;2.20;;;;;;;;;;5072288;28;20204;-68
2021/04/15 13:11:47;;;;;;;2.83;2.13;;;;;;;;;;5072107;28;20291;-67
2021/04/15 13:14:37;;;;;;;2.20;2.00;;;;;;;;;;5071805;28;20234;-67
2021/04/15 13:17:42;;;;;;;2.93;2.43;;;;;;;;;;5071664;28;20245;-67
2021/04/15 13:20:38;;;;;;;2.67;2.25;;;;;;;;;;5070671;28;20434;-68
2021/04/15 13:23:38;;;;;;;3.60;3.30;;;;;;;;;;5072112;28;20646;-67
2021/04/15 13:26:31;;;;;;;2.53;2.33;;;;;;;;;;5071328;28;20731;-67
2021/04/15 13:29:18;;;;;;;10.13;8.93;;;;;;;;;;5071830;28;20689;-68
2021/04/15 13:32:03;;;;;;;5.18;4.68;;;;;;;;;;5071625;28;20536;-67
2021/04/15 13:35:01;;;;;;;2.33;2.17;;;;;;;;;;5071484;28;20273;-67
2021/04/15 13:37:46;;;;;;;2.50;2.30;;;;;;;;;;5071117;28;20203;-67
2021/04/15 13:40:43;;;;;;;2.53;2.33;;;;;;;;;;5071747;28;20222;-67
2021/04/15 13:43:44;;;;;;;4.70;2.73;;;;;;;;;;5071397;28;20243;-68
2021/04/15 13:46:33;;;;;;;3.03;2.30;;;;;;;;;;5070907;28;20244;-67
2021/04/15 13:49:41;;;;;;;2.50;2.40;;;;;;;;;;5071625;28;20205;-67
2021/04/15 13:52:32;;;;;;;2.83;2.50;;;;;;;;;;5066167;28;20226;-67
2021/04/15 13:55:33;;;;;;;2.60;2.40;;;;;;;;;;5070991;28;20232;-68
2021/04/15 13:58:33;;;;;;;2.77;2.57;;;;;;;;;;5071157;28;20298;-68
2021/04/15 14:01:27;;;;;;;5.63;2.80;;;;;;;;;;5071431;28;20232;-68
2021/04/15 14:04:35;;;;;;;2.80;2.60;;;;;;;;;;5071517;28;20201;-68
2021/04/15 14:07:20;;;;;;;2.70;2.50;;;;;;;;;;5070905;28;20288;-67
2021/04/15 14:10:26;;;;;;;2.90;2.60;;;;;;;;;;5071301;28;20412;-68
2021/04/15 14:13:14;;;;;;;2.50;2.30;;;;;;;;;;5071055;28;20224;-67
2021/04/15 14:16:03;;;;;;;2.40;2.17;;;;;;;;;;5070692;28;20255;-68
2021/04/15 14:18:48;;;;;;;2.63;2.37;;;;;;;;;;5071036;28;20235;-68
2021/04/15 14:21:35;;;;;;;2.80;2.40;;;;;;;;;;5070717;28;20858;-68
2021/04/15 14:24:25;;;;;;;2.73;2.40;;;;;;;;;;5070933;28;20200;-68
2021/04/15 14:27:15;;;;;;;2.77;2.30;;;;;;;;;;5070426;28;20217;-68
2021/04/15 14:30:09;;;;;;;2.07;1.97;;;;;;;;;;5070891;28;20226;-68
2021/04/15 14:32:54;;;;;;;2.93;2.40;;;;;;;;;;5070721;28;20217;-67
2021/04/15 14:35:39;;;;;;;3.40;2.33;;;;;;;;;;5070769;28;20205;-68
2021/04/15 14:38:29;;;;;;;2.80;2.40;;;;;;;;;;5070772;28;20236;-67
2021/04/15 14:41:14;;;;;;;2.77;2.07;;;;;;;;;;5070664;28;20278;-67
2021/04/15 14:44:07;;;;;;;2.93;2.10;;;;;;;;;;5070542;28;20277;-68
2021/04/15 14:46:51;;;;;;;1.97;1.87;;;;;;;;;;5070134;28;20242;-68
2021/04/15 14:49:37;;;;;;;2.20;2.10;;;;;;;;;;5070718;28;20668;-67
2021/04/15 14:52:23;;;;;;;2.03;1.90;;;;;;;;;;5074329;28;20227;-69
2021/04/15 14:55:16;;;;;;;2.80;2.00;;;;;;;;;;5074317;28;20234;-68
2021/04/15 14:58:04;;;;;;;2.80;2.50;;;;;;;;;;5074335;28;20220;-68
2021/04/15 15:00:50;;;;;;;2.33;2.00;;;;;;;;;;5075064;28;20615;-68
2021/04/15 15:03:36;;;;;;;3.33;2.30;;;;;;;;;;5074800;28;20225;-68
2021/04/15 15:06:31;;;;;;;3.97;2.70;;;;;;;;;;5074349;28;20206;-68
2021/04/15 15:09:17;;;;;;;3.13;2.77;;;;;;;;;;5074465;28;20878;-68
2021/04/15 15:12:04;;;;;;;2.50;2.30;;;;;;;;;;5073133;28;20448;-68
2021/04/15 15:14:49;;;;;;;2.80;2.50;;;;;;;;;;5074125;28;20884;-68
2021/04/15 15:17:34;;;;;;;2.90;2.60;;;;;;;;;;5073842;28;20200;-68
2021/04/15 15:20:30;;;;;;;2.23;2.03;;;;;;;;;;5073910;28;20202;-68
2021/04/15 15:23:27;;;;;;;2.07;1.97;;;;;;;;;;5073994;28;20283;-68
2021/04/15 15:26:20;;;;;;;2.50;2.30;;;;;;;;;;5073564;28;20198;-68
2021/04/15 15:29:05;;;;;;;3.07;2.30;;;;;;;;;;5074098;28;20205;-68
2021/04/15 15:31:50;;;;;;;2.23;2.10;;;;;;;;;;5073909;28;20283;-68
2021/04/15 15:34:36;;;;;;;4.80;2.57;;;;;;;;;;5073639;28;20237;-68
2021/04/15 15:37:21;;;;;;;2.57;2.37;;;;;;;;;;5073375;28;20259;-68
2021/04/15 15:40:30;;;;;;;3.53;2.60;;;;;;;;;;5074062;28;20243;-68
2021/04/15 15:43:17;;;;;;;2.67;2.47;;;;;;;;;;5073714;28;20221;-68
2021/04/15 15:46:02;;;;;;;3.33;2.87;;;;;;;;;;5073972;28;20201;-68
2021/04/15 15:48:48;;;;;;;3.80;3.20;;;;;;;;;;5073913;28;20271;-68
2021/04/15 15:51:38;;;;;;;4.53;3.50;;;;;;;;;;5073774;28;20295;-68
2021/04/15 15:54:30;;;;;;;7.17;5.10;;;;;;;;;;5073364;28;20650;-68
2021/04/15 15:57:30;;;;;;;7.33;4.90;;;;;;;;;;5073427;28;20232;-68
2021/04/15 16:00:16;;;;;;;3.93;3.53;;;;;;;;;;5073128;28;20925;-68
2021/04/15 16:03:06;;;;;;;4.57;3.73;;;;;;;;;;5072423;28;20481;-68
2021/04/15 16:05:52;;;;;;;4.47;3.70;;;;;;;;;;5073615;28;20255;-68
2021/04/15 16:08:37;;;;;;;6.07;5.10;;;;;;;;;;5073495;28;20263;-68
2021/04/15 16:11:28;;;;;;;3.47;3.13;;;;;;;;;;5073199;28;20208;-68
2021/04/15 16:14:33;;;;;;;4.03;3.40;;;;;;;;;;5073446;28;20221;-68
2021/04/15 16:17:18;;;;;;;3.63;3.20;;;;;;;;;;5072771;28;20247;-68
2021/04/15 16:20:03;;;;;;;3.97;3.30;;;;;;;;;;5072774;28;20220;-68
2021/04/15 16:22:48;;;;;;;4.13;3.40;;;;;;;;;;5073230;28;20229;-67
2021/04/15 16:25:32;;;;;;;3.67;3.20;;;;;;;;;;5073004;28;20204;-68
2021/04/15 16:28:17;;;;;;;3.40;2.67;;;;;;;;;;5072922;28;20489;-68
2021/04/15 16:31:01;;;;;;;3.87;3.20;;;;;;;;;;5072725;28;20582;-68
2021/04/15 16:33:46;;;;;;;3.10;2.60;;;;;;;;;;5072645;28;20590;-68
2021/04/15 16:36:32;;;;;;;4.07;3.30;;;;;;;;;;5072779;28;20193;-68
2021/04/15 16:39:18;;;;;;;3.43;2.90;;;;;;;;;;5072776;28;20207;-68
2021/04/15 16:42:02;;;;;;;3.53;3.07;;;;;;;;;;5072344;28;20224;-68
2021/04/15 16:44:46;;;;;;;3.20;2.90;;;;;;;;;;5072663;28;20243;-68
2021/04/15 16:47:31;;;;;;;3.00;2.70;;;;;;;;;;5071969;28;20705;-68
2021/04/15 16:50:19;;;;;;;4.13;3.30;;;;;;;;;;5071568;28;20460;-68
2021/04/15 16:53:05;;;;;;;4.33;3.30;;;;;;;;;;5072764;28;20635;-68
2021/04/15 16:55:49;;;;;;;5.43;3.00;;;;;;;;;;5072469;28;20201;-68
2021/04/15 16:58:34;;;;;;;5.47;3.23;;;;;;;;;;5072701;28;20200;-68